createdAt,value
2022-09-26T00:01:48.153Z,70.34
2022-09-26T00:04:25.236Z,71.32
2022-09-26T00:06:58.739Z,71.52
2022-09-26T00:09:30.110Z,71.75
2022-09-26T00:12:00.956Z,73.14
2022-09-26T00:14:30.871Z,73.22
2022-09-26T00:17:01.742Z,73.70
2022-09-26T00:19:31.317Z,74.33
2022-09-26T00:22:01.328Z,74.90
2022-09-26T00:24:30.138Z,75.13
2022-09-26T00:27:01.187Z,75.82
2022-09-26T00:29:37.013Z,76.39
2022-09-26T00:32:06.893Z,76.78
2022-09-26T00:34:38.539Z,77.33
2022-09-26T00:37:08.677Z,77.30
2022-09-26T00:39:37.011Z,77.92
2022-09-26T00:42:08.357Z,78.22
2022-09-26T00:44:54.776Z,78.61
2022-09-26T00:47:50.965Z,78.88
2022-09-26T00:50:32.531Z,80.05
2022-09-26T00:53:24.999Z,80.68
2022-09-26T00:56:07.587Z,81.08
2022-09-26T00:58:58.424Z,82.18
2022-09-26T01:01:30.599Z,83.14
2022-09-26T01:04:03.270Z,83.54
2022-09-26T01:06:31.825Z,83.93
2022-09-26T01:09:09.548Z,83.87
2022-09-26T01:11:43.867Z,83.71
2022-09-26T01:14:14.737Z,84.20
2022-09-26T01:16:49.423Z,84.25
2022-09-26T01:19:53.612Z,84.17
2022-09-26T01:23:06.544Z,85.56
2022-09-26T01:26:19.568Z,85.67
2022-09-26T01:29:18.104Z,86.10
2022-09-26T01:32:15.367Z,86.69
2022-09-26T01:35:12.288Z,86.82
2022-09-26T01:38:06.883Z,86.94
2022-09-26T01:41:16.317Z,86.72
2022-09-26T01:44:29.990Z,87.15
2022-09-26T01:47:44.323Z,88.40
2022-09-26T01:51:16.815Z,89.10
2022-09-26T01:53:54.809Z,89.51
2022-09-26T01:56:31.070Z,90.49
2022-09-26T01:59:10.655Z,91.54
2022-09-26T02:01:45.796Z,92.56
2022-09-26T02:04:20.754Z,93.73
2022-09-26T02:07:11.663Z,94.28
2022-09-26T02:09:46.519Z,94.88
2022-09-26T02:12:34.512Z,96.67
2022-09-26T02:15:09.460Z,97.05
2022-09-26T02:17:50.282Z,97.99
2022-09-26T02:20:35.316Z,99.35
2022-09-26T02:23:09.278Z,100.00
2022-09-26T02:25:45.095Z,100.00
2022-09-26T02:28:14.399Z,100.00
2022-09-26T02:30:48.817Z,100.00
2022-09-26T02:33:18.884Z,100.00
2022-09-26T02:35:58.963Z,100.00
2022-09-26T02:38:34.825Z,100.00
2022-09-26T02:41:37.759Z,100.00
2022-09-26T02:44:43.531Z,100.00
2022-09-26T02:47:46.243Z,100.00
2022-09-26T02:51:05.757Z,100.00
2022-09-26T02:53:36.948Z,100.00
2022-09-26T02:56:31.354Z,100.00
2022-09-26T02:59:17.771Z,100.00
2022-09-26T03:02:01.740Z,100.00
2022-09-26T03:04:55.679Z,100.00
2022-09-26T03:07:35.705Z,100.00
2022-09-26T03:10:07.654Z,100.00
2022-09-26T03:12:38.493Z,100.00
2022-09-26T03:15:08.527Z,100.00
2022-09-26T03:17:41.410Z,100.00
2022-09-26T03:20:16.302Z,100.00
2022-09-26T03:22:47.741Z,100.00
2022-09-26T03:25:27.982Z,100.00
2022-09-26T03:28:11.264Z,100.00
2022-09-26T03:30:50.070Z,100.00
2022-09-26T03:33:28.890Z,100.00
2022-09-26T03:36:00.518Z,100.00
2022-09-26T03:38:31.090Z,100.00
2022-09-26T03:41:11.477Z,100.00
2022-09-26T03:44:00.091Z,100.00
2022-09-26T03:46:40.337Z,100.00
2022-09-26T03:49:12.376Z,100.00
2022-09-26T03:51:41.260Z,100.00
2022-09-26T03:54:09.324Z,100.00
2022-09-26T03:56:38.321Z,100.00
2022-09-26T03:59:06.132Z,100.00
2022-09-26T04:01:36.179Z,100.00
2022-09-26T04:04:04.317Z,100.00
2022-09-26T04:06:33.349Z,100.00
2022-09-26T04:09:03.970Z,100.00
2022-09-26T04:11:35.288Z,100.00
2022-09-26T04:14:09.178Z,100.00
2022-09-26T04:16:37.395Z,100.00
2022-09-26T04:19:37.159Z,100.00
2022-09-26T04:22:12.936Z,100.00
2022-09-26T04:24:48.441Z,100.00
2022-09-26T04:27:18.732Z,100.00
2022-09-26T04:29:47.409Z,100.00
2022-09-26T04:32:48.536Z,100.00
2022-09-26T04:35:41.503Z,100.00
2022-09-26T04:38:10.031Z,100.00
2022-09-26T04:40:42.779Z,100.00
2022-09-26T04:43:16.357Z,100.00
2022-09-26T04:45:46.310Z,100.00
2022-09-26T04:48:16.393Z,100.00
2022-09-26T04:51:15.578Z,100.00
2022-09-26T04:53:44.728Z,100.00
2022-09-26T04:56:24.293Z,100.00
2022-09-26T04:58:59.556Z,100.00
2022-09-26T05:01:35.427Z,100.00
2022-09-26T05:04:27.462Z,100.00
2022-09-26T05:06:59.748Z,100.00
2022-09-26T05:09:36.230Z,100.00
2022-09-26T05:12:19.919Z,100.00
2022-09-26T05:14:54.204Z,100.00
2022-09-26T05:17:24.670Z,100.00
2022-09-26T05:20:09.569Z,100.00
2022-09-26T05:22:58.890Z,100.00
2022-09-26T05:25:49.673Z,100.00
2022-09-26T05:28:20.275Z,100.00
2022-09-26T05:30:51.962Z,100.00
2022-09-26T05:33:22.363Z,100.00
2022-09-26T05:35:55.341Z,100.00
2022-09-26T05:38:28.541Z,100.00
2022-09-26T05:41:01.388Z,100.00
2022-09-26T05:43:33.456Z,100.00
2022-09-26T05:46:32.718Z,100.00
2022-09-26T05:49:08.438Z,100.00
2022-09-26T05:51:49.161Z,100.00
2022-09-26T05:54:21.717Z,100.00
2022-09-26T05:56:57.215Z,100.00
2022-09-26T05:59:46.888Z,100.00
2022-09-26T06:02:26.966Z,100.00
2022-09-26T06:05:13.803Z,100.00
2022-09-26T06:08:09.318Z,100.00
2022-09-26T06:10:45.363Z,100.00
2022-09-26T06:13:15.529Z,100.00
2022-09-26T06:15:50.116Z,95.95
2022-09-26T06:18:18.426Z,91.26
2022-09-26T06:20:49.605Z,89.89
2022-09-26T06:23:17.654Z,91.31
2022-09-26T06:25:48.582Z,90.19
2022-09-26T06:28:18.672Z,91.00
2022-09-26T06:30:47.122Z,89.93
2022-09-26T06:33:33.165Z,90.45
2022-09-26T06:36:22.848Z,89.33
2022-09-26T06:38:56.531Z,88.63
2022-09-26T06:41:26.732Z,88.19
2022-09-26T06:43:59.469Z,87.37
2022-09-26T06:46:51.035Z,86.90
2022-09-26T06:49:32.952Z,85.44
2022-09-26T06:52:08.920Z,83.75
2022-09-26T06:54:40.712Z,82.45
2022-09-26T06:57:14.693Z,82.56
2022-09-26T06:59:46.510Z,83.08
2022-09-26T07:02:22.386Z,82.96
2022-09-26T07:05:06.985Z,84.62
2022-09-26T07:07:43.356Z,85.73
2022-09-26T07:10:20.067Z,86.21
2022-09-26T07:13:05.420Z,87.23
2022-09-26T07:15:37.311Z,86.35
2022-09-26T07:18:26.856Z,86.96
2022-09-26T07:21:05.586Z,87.34
2022-09-26T07:24:06.162Z,85.86
2022-09-26T07:26:36.586Z,87.37
2022-09-26T07:29:12.966Z,87.82
2022-09-26T07:31:42.598Z,88.66
2022-09-26T07:34:41.628Z,87.87
2022-09-26T07:37:19.981Z,87.11
2022-09-26T07:40:00.695Z,86.03
2022-09-26T07:42:42.094Z,86.42
2022-09-26T07:45:28.016Z,85.43
2022-09-26T07:48:23.779Z,86.14
2022-09-26T07:51:13.378Z,86.28
2022-09-26T07:53:56.773Z,87.10
2022-09-26T07:56:35.936Z,86.41
2022-09-26T07:59:38.123Z,86.31
2022-09-26T08:02:40.618Z,85.22
2022-09-26T08:05:22.981Z,84.55
2022-09-26T08:08:03.417Z,86.79
2022-09-26T08:11:06.313Z,86.99
2022-09-26T08:17:49.360Z,87.29
2022-09-26T08:20:20.425Z,86.88
2022-09-26T08:23:01.585Z,85.92
2022-09-26T08:25:35.315Z,86.94
2022-09-26T08:28:13.982Z,85.28
2022-09-26T08:30:46.448Z,83.61
2022-09-26T08:33:19.831Z,83.70
2022-09-26T08:35:50.375Z,83.70
2022-09-26T08:38:44.027Z,84.55
2022-09-26T08:41:46.091Z,84.58
2022-09-26T08:45:47.924Z,83.92
2022-09-26T08:49:54.347Z,84.04
2022-09-26T08:52:45.657Z,81.67
2022-09-26T08:55:20.437Z,80.31
2022-09-26T08:58:10.687Z,77.75
2022-09-26T09:00:45.575Z,76.24
2022-09-26T09:06:28.458Z,75.44
2022-09-26T09:09:15.243Z,74.94
2022-09-26T09:12:34.849Z,74.25
2022-09-26T09:15:46.218Z,73.72
2022-09-26T09:18:47.789Z,73.09
2022-09-26T09:22:16.135Z,72.94
2022-09-26T09:25:24.784Z,74.32
2022-09-26T09:28:17.757Z,72.95
2022-09-26T09:30:56.061Z,72.31
2022-09-26T09:33:53.836Z,72.23
2022-09-26T09:36:54.960Z,70.94
2022-09-26T09:39:47.861Z,72.42
2022-09-26T09:42:47.547Z,73.57
2022-09-26T09:45:23.285Z,73.93
2022-09-26T09:47:53.865Z,73.81
2022-09-26T09:50:41.613Z,74.52
2022-09-26T09:53:27.957Z,74.71
2022-09-26T09:56:24.584Z,74.65
2022-09-26T09:59:11.359Z,75.64
2022-09-26T10:02:31.405Z,77.65
2022-09-26T10:05:26.274Z,77.93
2022-09-26T10:07:58.103Z,77.68
2022-09-26T10:11:30.141Z,77.05
2022-09-26T10:14:39.844Z,78.25
2022-09-26T10:17:39.688Z,77.99
2022-09-26T10:20:35.293Z,76.50
2022-09-26T10:23:09.547Z,76.31
2022-09-26T10:25:46.690Z,76.55
2022-09-26T10:28:45.007Z,76.36
2022-09-26T10:31:31.278Z,76.78
2022-09-26T10:34:41.696Z,76.78
2022-09-26T10:37:26.340Z,75.92
2022-09-26T10:40:56.031Z,74.61
2022-09-26T10:43:38.351Z,73.84
2022-09-26T10:46:20.347Z,74.55
2022-09-26T10:49:02.667Z,73.65
2022-09-26T10:51:55.734Z,71.66
2022-09-26T10:54:33.413Z,69.29
2022-09-26T10:57:05.321Z,71.24
2022-09-26T10:59:43.698Z,69.72
2022-09-26T11:02:22.177Z,68.66
2022-09-26T11:05:27.809Z,68.71
2022-09-26T11:08:10.831Z,68.17
2022-09-26T11:11:18.781Z,66.68
2022-09-26T11:14:09.640Z,67.29
2022-09-26T11:16:59.440Z,66.79
2022-09-26T11:20:14.505Z,65.91
2022-09-26T11:22:50.035Z,66.38
2022-09-26T11:25:58.143Z,66.40
2022-09-26T11:29:06.371Z,67.00
2022-09-26T11:32:08.652Z,65.74
2022-09-26T11:35:33.479Z,65.98
2022-09-26T11:38:41.237Z,64.87
2022-09-26T11:41:40.409Z,64.59
2022-09-26T11:44:27.884Z,64.74
2022-09-26T11:47:30.439Z,64.88
2022-09-26T11:50:40.120Z,67.62
2022-09-26T11:53:46.183Z,68.68
2022-09-26T11:56:37.022Z,69.15
2022-09-26T11:59:29.582Z,71.00
2022-09-26T12:02:33.138Z,72.54
2022-09-26T12:05:52.563Z,73.16
2022-09-26T12:08:58.133Z,74.61
2022-09-26T12:11:59.590Z,75.62
2022-09-26T12:15:06.504Z,76.08
2022-09-26T12:17:50.467Z,75.52
2022-09-26T12:20:32.474Z,77.84
2022-09-26T12:23:16.727Z,78.75
2022-09-26T12:26:35.407Z,79.84
2022-09-26T12:29:33.795Z,81.77
2022-09-26T12:32:19.624Z,82.17
2022-09-26T12:35:08.333Z,82.69
2022-09-26T12:38:07.265Z,83.08
2022-09-26T12:41:05.225Z,82.44
2022-09-26T12:44:38.607Z,84.06
2022-09-26T12:47:26.239Z,84.95
2022-09-26T12:50:06.397Z,87.58
2022-09-26T12:52:53.453Z,88.17
2022-09-26T12:55:53.737Z,90.43
2022-09-26T12:59:13.180Z,94.13
2022-09-26T13:02:03.768Z,95.55
2022-09-26T13:04:57.405Z,97.87
2022-09-26T13:08:40.440Z,96.33
2022-09-26T13:11:32.923Z,99.23
2022-09-26T13:17:34.672Z,100.00
2022-09-26T13:20:32.661Z,99.45
2022-09-26T13:23:41.248Z,99.57
2022-09-26T13:26:28.460Z,100.00
2022-09-26T13:29:23.648Z,99.79
2022-09-26T13:32:25.877Z,100.00
2022-09-26T13:35:22.484Z,100.00
2022-09-26T13:38:08.462Z,100.00
2022-09-26T13:41:01.558Z,100.00
2022-09-26T13:44:06.047Z,100.00
2022-09-26T13:47:03.018Z,97.83
2022-09-26T13:49:52.327Z,97.23
2022-09-26T13:53:14.362Z,96.36
2022-09-26T13:55:46.590Z,95.31
2022-09-26T13:58:28.103Z,95.66
2022-09-26T14:01:33.773Z,95.15
2022-09-26T14:04:34.512Z,96.04
2022-09-26T14:07:43.236Z,99.00
2022-09-26T14:10:46.738Z,99.47
2022-09-26T14:13:45.250Z,99.87
2022-09-26T14:16:36.624Z,99.35
2022-09-26T14:19:35.778Z,98.68
2022-09-26T14:22:28.390Z,100.00
2022-09-26T14:24:59.440Z,100.00
2022-09-26T14:27:44.587Z,100.00
2022-09-26T14:30:39.657Z,100.00
2022-09-26T14:33:17.759Z,100.00
2022-09-26T14:35:49.823Z,100.00
2022-09-26T14:38:24.909Z,100.00
2022-09-26T14:41:03.419Z,100.00
2022-09-26T14:43:45.322Z,100.00
2022-09-26T14:46:30.990Z,100.00
2022-09-26T14:49:06.119Z,100.00
2022-09-26T14:51:45.491Z,100.00
2022-09-26T14:54:27.015Z,100.00
2022-09-26T14:57:05.678Z,100.00
2022-09-26T14:59:43.548Z,100.00
2022-09-26T15:02:26.222Z,100.00
2022-09-26T15:05:22.301Z,100.00
2022-09-26T15:08:01.317Z,100.00
2022-09-26T15:10:42.968Z,100.00
2022-09-26T15:13:43.575Z,100.00
2022-09-26T15:16:32.600Z,100.00
2022-09-26T15:19:16.014Z,100.00
2022-09-26T15:22:12.720Z,100.00
2022-09-26T15:24:44.463Z,100.00
2022-09-26T15:27:29.865Z,100.00
2022-09-26T15:30:30.331Z,100.00
2022-09-26T15:33:06.936Z,100.00
2022-09-26T15:35:36.698Z,100.00
2022-09-26T15:38:13.772Z,100.00
2022-09-26T15:40:44.957Z,100.00
2022-09-26T15:43:23.386Z,100.00
2022-09-26T15:46:09.747Z,100.00
2022-09-26T15:48:45.461Z,100.00
2022-09-26T15:51:28.177Z,100.00
2022-09-26T15:54:02.179Z,100.00
2022-09-26T15:56:43.840Z,100.00
2022-09-26T15:59:21.403Z,100.00
2022-09-26T16:01:50.638Z,100.00
2022-09-26T16:04:22.684Z,100.00
2022-09-26T16:07:03.576Z,100.00
2022-09-26T16:09:34.523Z,100.00
2022-09-26T16:12:30.338Z,100.00
2022-09-26T16:15:04.274Z,100.00
2022-09-26T16:17:37.635Z,100.00
2022-09-26T16:20:11.646Z,100.00
2022-09-26T16:22:53.543Z,100.00
2022-09-26T16:25:25.962Z,100.00
2022-09-26T16:28:19.175Z,100.00
2022-09-26T16:31:20.435Z,100.00
2022-09-26T16:33:54.468Z,100.00
2022-09-26T16:36:30.538Z,100.00
2022-09-26T16:39:07.412Z,100.00
2022-09-26T16:42:03.869Z,100.00
2022-09-26T16:44:36.267Z,100.00
2022-09-26T16:47:47.927Z,100.00
2022-09-26T16:50:29.276Z,100.00
2022-09-26T16:52:59.207Z,100.00
2022-09-26T16:55:28.112Z,100.00
2022-09-26T16:58:02.281Z,100.00
2022-09-26T17:00:55.616Z,100.00
2022-09-26T17:03:27.764Z,100.00
2022-09-26T17:05:58.924Z,100.00
2022-09-26T17:08:28.928Z,100.00
2022-09-26T17:11:01.473Z,100.00
2022-09-26T17:13:36.028Z,100.00
2022-09-26T17:16:05.597Z,100.00
2022-09-26T17:18:35.246Z,100.00
2022-09-26T17:21:04.741Z,100.00
2022-09-26T17:23:41.536Z,100.00
2022-09-26T17:26:20.214Z,100.00
2022-09-26T17:28:54.055Z,100.00
2022-09-26T17:31:23.333Z,100.00
2022-09-26T17:33:53.545Z,100.00
2022-09-26T17:36:24.043Z,100.00
2022-09-26T17:38:53.638Z,100.00
2022-09-26T17:41:30.174Z,100.00
2022-09-26T17:44:01.873Z,100.00
2022-09-26T17:46:31.193Z,100.00
2022-09-26T17:49:00.661Z,100.00
2022-09-26T17:51:31.380Z,100.00
2022-09-26T17:54:02.327Z,100.00
2022-09-26T17:56:31.212Z,100.00
2022-09-26T17:59:00.324Z,100.00
2022-09-26T18:01:34.390Z,100.00
2022-09-26T18:04:07.359Z,100.00
2022-09-26T18:06:37.184Z,100.00
2022-09-26T18:09:10.442Z,100.00
2022-09-26T18:11:42.103Z,100.00
2022-09-26T18:14:17.679Z,100.00
2022-09-26T18:16:46.849Z,100.00
2022-09-26T18:19:17.431Z,100.00
2022-09-26T18:21:54.673Z,100.00
2022-09-26T18:24:27.548Z,100.00
2022-09-26T18:27:03.755Z,100.00
2022-09-26T18:29:35.985Z,100.00
2022-09-26T18:32:12.480Z,100.00
2022-09-26T18:34:47.070Z,100.00
2022-09-26T18:37:15.669Z,100.00
2022-09-26T18:39:49.687Z,100.00
2022-09-26T18:42:25.299Z,100.00
2022-09-26T18:45:05.495Z,100.00
2022-09-26T18:47:45.869Z,100.00
2022-09-26T18:50:24.684Z,100.00
2022-09-26T18:52:54.442Z,100.00
2022-09-26T18:55:43.532Z,100.00
2022-09-26T18:58:26.531Z,100.00
2022-09-26T19:01:08.185Z,100.00
2022-09-26T19:03:45.938Z,100.00
2022-09-26T19:06:42.492Z,100.00
2022-09-26T19:09:19.904Z,100.00
2022-09-26T19:11:49.699Z,100.00
2022-09-26T19:14:27.872Z,100.00
2022-09-26T19:17:00.528Z,100.00
2022-09-26T19:19:32.947Z,100.00
2022-09-26T19:22:15.696Z,100.00
2022-09-26T19:24:57.274Z,100.00
2022-09-26T19:27:27.487Z,100.00
2022-09-26T19:30:01.168Z,100.00
2022-09-26T19:32:45.001Z,100.00
2022-09-26T19:35:28.474Z,100.00
2022-09-26T19:38:02.285Z,100.00
2022-09-26T19:40:31.511Z,100.00
2022-09-26T19:42:59.828Z,100.00
2022-09-26T19:45:32.056Z,100.00
2022-09-26T19:48:00.325Z,100.00
2022-09-26T19:51:18.818Z,100.00
2022-09-26T19:53:47.159Z,100.00
2022-09-26T19:56:18.054Z,100.00
2022-09-26T19:58:47.028Z,100.00
2022-09-26T20:01:20.726Z,100.00
2022-09-26T20:03:50.545Z,100.00
2022-09-26T20:06:25.787Z,100.00
2022-09-26T20:09:01.766Z,100.00
2022-09-26T20:11:30.191Z,100.00
2022-09-26T20:14:18.072Z,100.00
2022-09-26T20:16:51.266Z,100.00
2022-09-26T20:19:35.404Z,100.00
2022-09-26T20:22:05.832Z,100.00
2022-09-26T20:24:40.207Z,100.00
2022-09-26T20:27:17.895Z,100.00
2022-09-26T20:30:32.605Z,100.00
2022-09-26T20:33:06.170Z,100.00
2022-09-26T20:35:40.137Z,100.00
2022-09-26T20:38:19.557Z,100.00
2022-09-26T20:40:51.728Z,100.00
2022-09-26T20:43:30.380Z,100.00
2022-09-26T20:45:59.162Z,100.00
2022-09-26T20:48:28.755Z,100.00
2022-09-26T20:50:58.579Z,100.00
2022-09-26T20:53:30.020Z,100.00
2022-09-26T20:55:58.222Z,100.00
2022-09-26T20:58:27.643Z,100.00
2022-09-26T21:00:56.901Z,100.00
2022-09-26T21:03:52.022Z,100.00
2022-09-26T21:06:30.007Z,100.00
2022-09-26T21:08:57.736Z,100.00
2022-09-26T21:11:29.521Z,100.00
2022-09-26T21:14:01.967Z,100.00
2022-09-26T21:16:31.677Z,100.00
2022-09-26T21:19:05.570Z,100.00
2022-09-26T21:21:35.847Z,100.00
2022-09-26T21:24:25.338Z,100.00
2022-09-26T21:26:57.283Z,100.00
2022-09-26T21:29:28.051Z,100.00
2022-09-26T21:32:02.980Z,100.00
2022-09-26T21:34:37.541Z,100.00
2022-09-26T21:37:10.574Z,100.00
2022-09-26T21:39:39.269Z,100.00
2022-09-26T21:42:07.696Z,100.00
2022-09-26T21:44:52.546Z,100.00
2022-09-26T21:47:22.480Z,100.00
2022-09-26T21:49:50.305Z,100.00
2022-09-26T21:52:35.210Z,100.00
2022-09-26T21:55:07.549Z,100.00
2022-09-26T21:57:43.280Z,100.00
2022-09-26T22:00:15.547Z,100.00
2022-09-26T22:02:52.650Z,100.00
2022-09-26T22:05:23.925Z,100.00
2022-09-26T22:07:52.103Z,100.00
2022-09-26T22:10:20.734Z,100.00
2022-09-26T22:12:56.925Z,100.00
2022-09-26T22:15:25.612Z,100.00
2022-09-26T22:17:55.537Z,100.00
2022-09-26T22:20:26.984Z,100.00
2022-09-26T22:25:52.285Z,100.00
2022-09-26T22:28:39.838Z,100.00
2022-09-26T22:31:10.325Z,100.00
2022-09-26T22:33:41.493Z,100.00
2022-09-26T22:36:09.781Z,100.00
2022-09-26T22:38:41.882Z,100.00
2022-09-26T22:41:18.805Z,100.00
2022-09-26T22:43:49.950Z,100.00
2022-09-26T22:46:22.621Z,100.00
2022-09-26T22:48:53.891Z,100.00
2022-09-26T22:51:31.478Z,100.00
2022-09-26T22:54:02.030Z,100.00
2022-09-26T22:56:34.781Z,100.00
2022-09-26T22:59:03.443Z,100.00
2022-09-26T23:01:33.548Z,100.00
2022-09-26T23:04:06.998Z,100.00
2022-09-26T23:06:35.419Z,100.00
2022-09-26T23:09:07.471Z,100.00
2022-09-26T23:11:36.443Z,100.00
2022-09-26T23:14:07.068Z,100.00
2022-09-26T23:16:36.033Z,100.00
2022-09-26T23:19:09.106Z,100.00
2022-09-26T23:21:40.360Z,100.00
2022-09-26T23:24:12.450Z,100.00
2022-09-26T23:26:50.894Z,100.00
2022-09-26T23:29:20.370Z,100.00
2022-09-26T23:31:51.373Z,100.00
2022-09-26T23:34:20.172Z,100.00
2022-09-26T23:36:48.646Z,100.00
2022-09-26T23:39:17.043Z,100.00
2022-09-26T23:41:47.822Z,100.00
2022-09-26T23:44:18.480Z,100.00
2022-09-26T23:46:51.698Z,100.00
2022-09-26T23:49:21.766Z,100.00
2022-09-26T23:51:52.443Z,100.00
2022-09-26T23:54:20.013Z,100.00
2022-09-26T23:56:48.344Z,100.00
2022-09-26T23:59:19.982Z,100.00
